Shevchenko, Kazakhstan
Current Conditions -  °F | °C
As of 8:00 AM on Friday 31 Oct 2014 (Local Time) from UATE Reporting Station
Clear Clear  
Wind Chill: 30°   Ceiling: Unl
Heat Index: 37°   Visibility: 6mi
Dew Point: 14°   Wind: 11mph
Humidity: 38%   Direction: 80°E
Pressure: 30.21"   Gusts: NA
Location:  43.64°N, 51.17°E
Report Text: UATE 310400Z 08005MPS CAVOK 03/M10 Q1023 R12/0///70 NOSIG RMKQFE765/1021
Loading
Personal Weather Stations






























Interactive Weather Map
Tropical Storm Tracking
New forecast layout! Learn more

10-Day Weather Forecast

Advertisements
Track Severe Weather on mobile